Time;durP1;ratioP1;P1;durP2;ratioP2;P2;SDS_P1;SDS_P2;PMS_P1;PMS_P2;Temp;Humidity;BMP_temperature;BMP_pressure;BME280_temperature;BME280_humidity;BME280_pressure;Samples;Min_cycle;Max_cycle;Signal;HPM_P1;HPM_P2
2022/08/25 00:01:31;;;;;;;6.22;4.47;;;20.40;99.90;;;;;;5110115;28;20218;-52
2022/08/25 00:03:59;;;;;;;9.77;4.38;;;20.30;99.90;;;;;;5108892;28;20258;-52
2022/08/25 00:06:30;;;;;;;5.78;4.20;;;20.30;99.90;;;;;;5108865;28;20298;-51
2022/08/25 00:08:59;;;;;;;8.18;4.55;;;20.30;99.90;;;;;;5109211;28;20220;-52
2022/08/25 00:11:31;;;;;;;7.25;4.60;;;20.30;99.90;;;;;;5109368;28;20794;-51
2022/08/25 00:14:01;;;;;;;4.68;4.13;;;20.30;99.90;;;;;;5109787;28;20277;-52
2022/08/25 00:16:31;;;;;;;5.75;4.50;;;20.30;99.90;;;;;;5110160;28;20248;-52
2022/08/25 00:19:04;;;;;;;5.18;4.10;;;20.30;99.90;;;;;;5117946;27;20592;-50
2022/08/25 00:21:33;;;;;;;8.00;5.00;;;20.30;99.90;;;;;;5130155;27;20203;-52
2022/08/25 00:24:03;;;;;;;7.10;4.35;;;20.30;99.90;;;;;;5130214;27;20272;-51
2022/08/25 00:26:31;;;;;;;7.72;5.05;;;20.30;99.90;;;;;;5130750;28;20232;-53
2022/08/25 00:28:59;;;;;;;5.32;4.75;;;20.30;99.90;;;;;;5120385;28;20202;-50
2022/08/25 00:31:29;;;;;;;8.32;4.90;;;20.30;99.90;;;;;;5130188;28;20603;-51
2022/08/25 00:34:08;;;;;;;8.30;4.70;;;20.30;99.90;;;;;;5113611;28;20299;-52
2022/08/25 00:36:37;;;;;;;6.40;4.90;;;20.20;99.90;;;;;;5130209;28;20203;-52
2022/08/25 00:39:09;;;;;;;9.55;5.20;;;20.20;99.90;;;;;;5130766;28;20210;-51
2022/08/25 00:41:38;;;;;;;7.20;4.30;;;20.20;99.90;;;;;;5129810;28;20255;-52
2022/08/25 00:44:09;;;;;;;6.22;4.68;;;20.20;99.90;;;;;;5123497;28;20277;-51
2022/08/25 00:46:40;;;;;;;6.07;5.03;;;20.20;99.90;;;;;;5129589;28;20207;-51
2022/08/25 00:49:13;;;;;;;6.63;4.90;;;20.10;99.90;;;;;;5129844;28;20671;-52
2022/08/25 00:51:55;;;;;;;6.35;4.97;;;20.10;99.90;;;;;;5130352;28;20246;-52
2022/08/25 00:54:27;;;;;;;8.80;4.90;;;20.10;99.90;;;;;;5126402;28;20232;-52
2022/08/25 00:56:57;;;;;;;7.97;5.13;;;20.00;99.90;;;;;;5130101;28;20203;-52
2022/08/25 00:59:26;;;;;;;5.25;4.40;;;20.00;99.90;;;;;;5130343;28;20219;-52
2022/08/25 01:01:55;;;;;;;7.45;5.03;;;20.00;99.90;;;;;;5130072;28;20199;-51
2022/08/25 01:04:24;;;;;;;7.78;5.35;;;20.00;99.90;;;;;;5129836;28;20234;-52
2022/08/25 01:06:52;;;;;;;5.93;5.10;;;20.00;99.90;;;;;;5124511;28;20625;-52
2022/08/25 01:09:21;;;;;;;7.72;5.55;;;19.90;99.90;;;;;;5123037;28;20267;-52
2022/08/25 01:11:50;;;;;;;9.38;5.28;;;19.90;99.90;;;;;;5130506;28;20215;-52
2022/08/25 01:14:21;;;;;;;6.50;5.25;;;19.90;99.90;;;;;;5130115;28;20223;-52
2022/08/25 01:16:49;;;;;;;8.57;4.97;;;19.90;99.90;;;;;;5115591;28;20280;-52
2022/08/25 01:19:21;;;;;;;6.47;5.43;;;19.80;99.90;;;;;;5129652;28;20227;-52
2022/08/25 01:21:52;;;;;;;6.50;5.28;;;19.80;99.90;;;;;;5129607;28;20260;-52
2022/08/25 01:24:25;;;;;;;7.53;5.80;;;19.80;99.90;;;;;;5129738;28;20275;-51
2022/08/25 01:26:53;;;;;;;7.32;5.28;;;19.80;99.90;;;;;;5130078;28;20225;-52
2022/08/25 01:29:24;;;;;;;6.38;5.78;;;19.80;99.90;;;;;;5120059;28;20252;-52
2022/08/25 01:31:56;;;;;;;6.95;5.50;;;19.80;99.90;;;;;;5128730;27;20246;-52
2022/08/25 01:34:25;;;;;;;9.88;5.85;;;19.90;99.90;;;;;;5118561;27;20226;-52
2022/08/25 01:36:56;;;;;;;6.72;5.95;;;19.90;99.90;;;;;;5133061;27;20207;-51
2022/08/25 01:39:25;;;;;;;8.63;6.03;;;19.90;99.90;;;;;;5132559;27;20260;-52
2022/08/25 01:42:23;;;;;;;7.18;5.57;;;19.90;99.90;;;;;;5133168;27;20202;-52
2022/08/25 01:44:51;;;;;;;11.30;6.00;;;20.00;99.90;;;;;;5123052;27;20207;-52
2022/08/25 01:47:19;;;;;;;7.93;5.70;;;19.90;99.90;;;;;;5132600;27;20207;-51
2022/08/25 01:49:48;;;;;;;7.60;5.75;;;19.90;99.90;;;;;;5133274;27;20207;-52
2022/08/25 01:52:23;;;;;;;6.43;5.82;;;19.80;99.90;;;;;;5132973;27;20268;-52
2022/08/25 01:54:51;;;;;;;6.07;5.35;;;19.70;99.90;;;;;;5129899;27;20202;-52
2022/08/25 01:57:20;;;;;;;10.32;6.10;;;19.70;99.90;;;;;;5132909;27;20215;-52
2022/08/25 01:59:48;;;;;;;7.95;5.65;;;19.70;99.90;;;;;;5132768;27;20771;-51
2022/08/25 02:02:16;;;;;;;7.50;6.10;;;19.70;99.90;;;;;;5133169;27;20228;-52
2022/08/25 02:04:46;;;;;;;11.07;6.43;;;19.70;99.90;;;;;;5132044;27;20222;-51
2022/08/25 02:07:15;;;;;;;6.75;6.10;;;19.70;99.90;;;;;;5124239;27;20204;-52
2022/08/25 02:09:44;;;;;;;8.02;6.22;;;19.60;99.90;;;;;;5128644;27;20215;-52
2022/08/25 02:12:12;;;;;;;8.13;6.45;;;19.60;99.90;;;;;;5132823;27;20775;-52
2022/08/25 02:14:40;;;;;;;7.60;6.55;;;19.60;99.90;;;;;;5132159;27;20646;-51
2022/08/25 02:17:09;;;;;;;7.50;6.75;;;19.60;99.90;;;;;;5117697;27;20199;-51
2022/08/25 02:19:38;;;;;;;8.85;6.45;;;19.50;99.90;;;;;;5132768;27;20614;-52
2022/08/25 02:22:06;;;;;;;8.05;7.25;;;19.40;99.90;;;;;;5132105;27;20248;-52
2022/08/25 02:24:34;;;;;;;8.68;6.90;;;19.30;99.90;;;;;;5131893;27;20248;-51
2022/08/25 02:27:04;;;;;;;8.85;7.03;;;19.30;99.90;;;;;;5132398;27;20207;-52
2022/08/25 02:29:32;;;;;;;8.63;6.55;;;19.30;99.90;;;;;;5123551;27;20203;-52
2022/08/25 02:32:00;;;;;;;9.38;7.07;;;19.20;99.90;;;;;;5123891;27;20215;-52
2022/08/25 02:34:28;;;;;;;8.60;7.47;;;19.10;99.90;;;;;;5122131;27;20219;-52
2022/08/25 02:36:57;;;;;;;8.20;7.40;;;19.10;99.90;;;;;;5132939;27;20234;-51
2022/08/25 02:39:25;;;;;;;10.75;7.25;;;19.00;99.90;;;;;;5132233;27;20618;-51
2022/08/25 02:41:53;;;;;;;9.95;7.00;;;19.00;99.90;;;;;;5132408;27;20195;-52
2022/08/25 02:44:22;;;;;;;10.90;7.85;;;18.90;99.90;;;;;;5125083;27;20272;-51
2022/08/25 02:46:50;;;;;;;7.85;7.03;;;18.90;99.90;;;;;;5132171;27;20578;-53
2022/08/25 02:49:18;;;;;;;9.10;7.57;;;18.90;99.90;;;;;;5131952;27;20206;-52
2022/08/25 02:51:46;;;;;;;7.95;6.75;;;18.80;99.90;;;;;;5132273;27;20226;-52
2022/08/25 02:54:14;;;;;;;10.07;7.20;;;18.80;99.90;;;;;;5130892;27;20787;-52
2022/08/25 02:56:43;;;;;;;7.78;7.05;;;18.80;99.90;;;;;;5109459;27;20273;-52
2022/08/25 02:59:11;;;;;;;7.22;6.47;;;18.70;99.90;;;;;;5110664;28;20195;-52
2022/08/25 03:01:40;;;;;;;7.68;6.88;;;18.70;99.90;;;;;;5110880;28;20245;-52
2022/08/25 03:04:09;;;;;;;7.88;6.90;;;18.70;99.90;;;;;;5110869;28;20269;-52
2022/08/25 03:06:37;;;;;;;11.88;7.70;;;18.60;99.90;;;;;;5110824;28;20208;-52
2022/08/25 03:09:05;;;;;;;8.65;7.32;;;18.60;99.90;;;;;;5111160;28;20257;-52
2022/08/25 03:11:34;;;;;;;7.60;6.90;;;18.60;99.90;;;;;;5110226;28;20264;-51
2022/08/25 03:14:03;;;;;;;8.18;7.35;;;18.50;99.90;;;;;;5110717;28;20219;-52
2022/08/25 03:16:31;;;;;;;7.30;6.63;;;18.50;99.90;;;;;;5110341;28;20211;-52
2022/08/25 03:19:01;;;;;;;7.93;7.13;;;18.40;99.90;;;;;;5110155;28;20207;-52
2022/08/25 03:21:29;;;;;;;7.75;6.95;;;18.40;99.90;;;;;;5110756;28;20219;-51
2022/08/25 03:23:58;;;;;;;10.27;7.60;;;18.40;99.90;;;;;;5110529;28;20277;-52
2022/08/25 03:29:12;;;;;;;8.43;7.10;;;18.30;99.90;;;;;;5097601;28;20626;-52
2022/08/25 03:31:43;;;;;;;8.07;7.28;;;18.30;99.90;;;;;;5110682;28;20221;-51
2022/08/25 03:34:13;;;;;;;9.77;7.05;;;18.20;99.90;;;;;;5108570;28;20929;-51
2022/08/25 03:36:41;;;;;;;8.23;7.43;;;18.20;99.90;;;;;;5110722;28;20257;-51
2022/08/25 03:39:09;;;;;;;9.98;8.25;;;18.10;99.90;;;;;;5109993;28;20998;-50
2022/08/25 03:41:37;;;;;;;8.75;7.60;;;18.10;99.90;;;;;;5109959;28;20756;-51
2022/08/25 03:44:08;;;;;;;10.30;7.82;;;18.10;99.90;;;;;;5110390;28;20281;-50
2022/08/25 03:46:39;;;;;;;8.73;7.82;;;18.10;99.90;;;;;;5110616;28;20204;-50
2022/08/25 03:49:13;;;;;;;10.68;7.82;;;18.00;99.90;;;;;;5109989;28;20211;-51
2022/08/25 03:51:45;;;;;;;8.73;7.22;;;18.10;99.90;;;;;;5109819;28;20733;-51
2022/08/25 03:54:15;;;;;;;9.20;7.35;;;18.10;99.90;;;;;;5109752;28;20282;-51
2022/08/25 03:56:43;;;;;;;7.80;7.07;;;18.10;99.90;;;;;;5109809;28;20252;-51
2022/08/25 03:59:11;;;;;;;9.32;7.60;;;18.10;99.90;;;;;;5110382;28;20684;-50
2022/08/25 04:01:42;;;;;;;10.43;8.07;;;18.10;99.90;;;;;;5110270;28;20724;-51
2022/08/25 04:04:11;;;;;;;11.63;7.32;;;18.10;99.90;;;;;;5109762;28;20269;-50
2022/08/25 04:06:40;;;;;;;9.40;7.70;;;18.10;99.90;;;;;;5109837;28;20218;-51
2022/08/25 04:09:11;;;;;;;8.38;7.57;;;18.10;99.90;;;;;;5109944;28;20219;-51
2022/08/25 04:11:39;;;;;;;8.57;7.68;;;18.00;99.90;;;;;;5110011;28;20211;-51
2022/08/25 04:14:09;;;;;;;10.50;7.88;;;18.00;99.90;;;;;;5110500;28;20237;-51
2022/08/25 04:16:44;;;;;;;10.20;8.15;;;17.90;99.90;;;;;;5109937;28;20234;-51
2022/08/25 04:19:12;;;;;;;8.80;7.90;;;17.90;99.90;;;;;;5109583;28;20223;-51
2022/08/25 04:21:40;;;;;;;9.52;8.43;;;17.90;99.90;;;;;;5109868;28;20207;-51
2022/08/25 04:24:11;;;;;;;11.25;8.95;;;17.80;99.90;;;;;;5109386;28;20251;-51
2022/08/25 04:26:42;;;;;;;10.50;8.90;;;17.70;99.90;;;;;;5109670;28;20273;-51
2022/08/25 04:29:11;;;;;;;12.25;9.07;;;17.70;99.90;;;;;;5099413;28;20260;-51
2022/08/25 04:31:41;;;;;;;10.60;9.45;;;17.70;99.90;;;;;;5109669;28;20569;-51
2022/08/25 04:34:09;;;;;;;10.75;9.07;;;17.60;99.90;;;;;;5106698;28;20314;-51
2022/08/25 04:36:58;;;;;;;10.65;8.52;;;17.60;99.90;;;;;;5110115;28;20250;-51
2022/08/25 04:39:28;;;;;;;9.57;8.48;;;17.60;99.90;;;;;;5109088;28;20204;-51
2022/08/25 04:41:56;;;;;;;9.07;8.27;;;17.50;99.90;;;;;;5109424;28;20204;-51
2022/08/25 04:44:24;;;;;;;10.98;9.30;;;17.60;99.90;;;;;;5109653;28;20265;-50
2022/08/25 04:46:52;;;;;;;9.57;8.63;;;17.60;99.90;;;;;;5109749;28;20709;-50
2022/08/25 04:49:20;;;;;;;11.23;8.65;;;17.60;99.90;;;;;;5109337;28;20208;-51
2022/08/25 04:51:49;;;;;;;11.50;8.43;;;17.60;99.90;;;;;;5109603;28;20257;-52
2022/08/25 04:54:20;;;;;;;9.30;8.30;;;17.60;99.90;;;;;;5109102;28;20235;-51
2022/08/25 04:56:51;;;;;;;11.65;8.27;;;17.60;99.90;;;;;;5109447;28;20239;-51
2022/08/25 04:59:21;;;;;;;9.35;8.38;;;17.60;99.90;;;;;;5109404;28;20588;-51
2022/08/25 05:01:49;;;;;;;8.82;7.93;;;17.80;99.90;;;;;;5109695;28;20207;-51
2022/08/25 05:04:23;;;;;;;8.57;7.75;;;18.40;99.90;;;;;;5109195;28;20227;-51
2022/08/25 05:06:54;;;;;;;8.45;7.60;;;18.90;99.90;;;;;;5112119;28;20203;-51
2022/08/25 05:09:22;;;;;;;9.55;7.25;;;19.40;99.90;;;;;;5112809;28;20207;-52
2022/08/25 05:11:53;;;;;;;12.23;8.00;;;19.80;99.90;;;;;;5113272;28;20250;-51
2022/08/25 05:14:22;;;;;;;8.90;8.00;;;20.10;99.90;;;;;;5113051;28;20219;-51
2022/08/25 05:16:53;;;;;;;9.00;7.20;;;20.40;99.90;;;;;;5113371;28;20212;-51
2022/08/25 05:19:22;;;;;;;8.48;7.00;;;20.50;99.90;;;;;;5112770;28;20199;-51
2022/08/25 05:21:51;;;;;;;8.48;7.45;;;20.40;99.90;;;;;;5113572;28;20211;-52
2022/08/25 05:24:20;;;;;;;9.82;7.68;;;20.20;99.90;;;;;;5111697;28;20215;-52
2022/08/25 05:26:49;;;;;;;9.00;7.55;;;20.00;99.90;;;;;;5113234;28;20207;-51
2022/08/25 05:29:18;;;;;;;11.32;8.80;;;19.80;99.90;;;;;;5103207;28;20249;-51
2022/08/25 05:31:46;;;;;;;9.30;8.32;;;19.80;99.90;;;;;;5111200;28;20207;-51
2022/08/25 05:34:18;;;;;;;9.75;8.88;;;19.70;99.90;;;;;;5111288;28;20215;-51
2022/08/25 05:36:47;;;;;;;9.57;8.10;;;19.70;99.90;;;;;;5112928;28;20279;-51
2022/08/25 05:39:15;;;;;;;10.00;8.55;;;19.60;99.90;;;;;;5112645;28;20249;-50
2022/08/25 05:41:43;;;;;;;12.63;9.32;;;19.70;99.90;;;;;;5112605;28;20207;-51
2022/08/25 05:44:11;;;;;;;10.07;8.90;;;19.70;99.90;;;;;;5112565;28;20224;-51
2022/08/25 05:46:41;;;;;;;9.98;8.95;;;19.70;99.90;;;;;;5112263;28;20218;-51
2022/08/25 05:49:08;;;;;;;10.25;8.38;;;19.60;99.90;;;;;;5112499;28;20211;-51
2022/08/25 05:51:37;;;;;;;10.77;8.65;;;19.60;99.90;;;;;;5112674;28;20212;-51
2022/08/25 05:54:05;;;;;;;9.60;8.60;;;19.70;99.90;;;;;;5112451;28;20232;-51
2022/08/25 05:56:33;;;;;;;10.88;8.93;;;19.60;99.90;;;;;;5098114;28;20664;-51
2022/08/25 05:59:01;;;;;;;12.43;8.80;;;19.60;99.90;;;;;;5111639;28;20215;-51
2022/08/25 06:04:23;;;;;;;11.73;8.70;;;19.90;99.90;;;;;;5111945;28;20223;-51
2022/08/25 06:06:52;;;;;;;10.60;8.85;;;20.00;99.90;;;;;;5110469;28;20199;-51
2022/08/25 06:09:21;;;;;;;13.68;8.75;;;20.00;99.90;;;;;;5111317;28;20211;-51
2022/08/25 06:11:49;;;;;;;11.55;8.60;;;20.10;99.90;;;;;;5112464;28;20261;-51
2022/08/25 06:14:22;;;;;;;14.70;8.77;;;20.20;99.90;;;;;;5112438;28;20283;-51
2022/08/25 06:16:51;;;;;;;11.45;9.18;;;20.20;99.90;;;;;;5111789;28;20212;-51
2022/08/25 06:19:20;;;;;;;10.05;9.05;;;20.20;99.90;;;;;;5111706;28;20269;-51
2022/08/25 06:21:52;;;;;;;9.93;8.60;;;20.60;99.90;;;;;;5108564;27;20684;-51
2022/08/25 06:24:20;;;;;;;12.10;8.05;;;21.20;99.90;;;;;;5103813;28;20239;-51
2022/08/25 06:26:48;;;;;;;8.70;7.90;;;22.00;99.90;;;;;;5110960;28;20207;-51
2022/08/25 06:29:16;;;;;;;9.15;8.32;;;22.50;99.90;;;;;;5109756;28;20200;-51
2022/08/25 06:31:45;;;;;;;10.68;8.30;;;22.90;99.90;;;;;;5110107;28;20249;-51
2022/08/25 06:34:13;;;;;;;10.90;7.50;;;23.40;99.90;;;;;;5109589;28;20245;-51
2022/08/25 06:36:42;;;;;;;9.30;7.47;;;23.80;99.90;;;;;;5111254;28;20303;-51
2022/08/25 06:39:17;;;;;;;8.70;7.78;;;24.10;99.90;;;;;;5111701;28;20281;-51
2022/08/25 06:41:45;;;;;;;10.60;7.30;;;24.50;99.90;;;;;;5111747;28;20208;-52
2022/08/25 06:44:13;;;;;;;9.15;7.10;;;24.80;99.90;;;;;;5111753;28;20219;-52
2022/08/25 06:46:41;;;;;;;7.70;6.95;;;25.10;99.90;;;;;;5111907;28;20250;-52
2022/08/25 06:49:10;;;;;;;7.63;6.82;;;25.40;99.90;;;;;;5111637;28;20235;-51
2022/08/25 06:51:38;;;;;;;7.68;6.57;;;25.60;99.90;;;;;;5111721;28;20203;-51
2022/08/25 06:54:08;;;;;;;7.60;6.88;;;25.70;99.90;;;;;;5111337;28;20588;-51
2022/08/25 06:56:40;;;;;;;9.35;7.13;;;25.80;99.90;;;;;;5118174;27;20732;-51
2022/08/25 06:59:09;;;;;;;11.98;7.07;;;26.10;99.90;;;;;;5118659;27;20200;-52
2022/08/25 07:01:37;;;;;;;8.13;6.45;;;26.30;99.90;;;;;;5111580;28;20257;-51
2022/08/25 07:04:06;;;;;;;9.70;6.65;;;26.40;99.90;;;;;;5103283;28;20224;-51
2022/08/25 07:06:40;;;;;;;9.48;6.95;;;26.70;99.90;;;;;;5110933;28;20209;-51
2022/08/25 07:09:10;;;;;;;12.50;7.93;;;26.90;99.90;;;;;;5111648;28;20289;-52
2022/08/25 07:11:40;;;;;;;9.30;6.93;;;27.10;99.90;;;;;;5110259;28;20208;-52
2022/08/25 07:14:10;;;;;;;8.27;7.43;;;27.30;99.90;;;;;;5111063;28;20223;-52
2022/08/25 07:16:40;;;;;;;7.70;6.90;;;27.40;99.90;;;;;;5110861;28;20222;-50
2022/08/25 07:19:11;;;;;;;8.55;7.55;;;27.50;99.90;;;;;;5110790;28;20916;-52
2022/08/25 07:21:44;;;;;;;9.07;7.55;;;27.60;99.90;;;;;;5110504;28;20207;-51
2022/08/25 07:24:14;;;;;;;7.88;7.03;;;27.70;99.90;;;;;;5111008;28;20300;-52
2022/08/25 07:26:45;;;;;;;10.88;8.27;;;27.70;99.90;;;;;;5110724;28;20207;-52
2022/08/25 07:29:15;;;;;;;8.13;7.32;;;28.10;99.90;;;;;;5098234;28;20204;-50
2022/08/25 07:31:44;;;;;;;9.95;7.88;;;28.20;99.90;;;;;;5109155;28;20207;-52
2022/08/25 07:36:58;;;;;;;9.55;8.05;;;28.40;99.90;;;;;;5110515;28;20215;-52
2022/08/25 07:39:27;;;;;;;9.27;7.60;;;28.30;99.90;;;;;;5109305;28;20196;-50
2022/08/25 07:41:57;;;;;;;9.95;7.88;;;28.50;99.90;;;;;;5110276;28;20214;-52
2022/08/25 07:44:27;;;;;;;9.23;8.30;;;28.50;99.90;;;;;;5110206;28;20242;-51
2022/08/25 07:46:55;;;;;;;10.38;8.25;;;28.60;99.90;;;;;;5110583;28;20215;-52
2022/08/25 07:49:26;;;;;;;10.60;8.95;;;28.60;99.90;;;;;;5110104;28;20220;-52
2022/08/25 07:52:06;;;;;;;9.60;8.63;;;28.70;99.90;;;;;;5110745;28;20234;-52
2022/08/25 07:54:36;;;;;;;10.85;8.75;;;28.90;99.90;;;;;;5109681;28;20223;-51
2022/08/25 07:57:08;;;;;;;9.93;9.00;;;29.00;99.90;;;;;;5109988;28;20210;-52
2022/08/25 07:59:40;;;;;;;11.20;8.70;;;29.00;99.90;;;;;;5110164;28;20214;-51
2022/08/25 08:02:10;;;;;;;11.18;9.23;;;29.10;99.90;;;;;;5109200;28;20610;-52
2022/08/25 08:04:48;;;;;;;10.32;9.25;;;29.10;99.90;;;;;;5109796;28;20245;-52
2022/08/25 08:07:18;;;;;;;12.50;9.80;;;28.70;99.90;;;;;;5109938;28;20291;-52
2022/08/25 08:09:47;;;;;;;10.60;9.18;;;28.50;99.90;;;;;;5109883;28;20208;-52
2022/08/25 08:12:28;;;;;;;10.98;9.75;;;28.40;99.90;;;;;;5109508;28;20211;-52
2022/08/25 08:14:59;;;;;;;10.50;9.40;;;28.20;99.90;;;;;;5109329;28;20259;-51
2022/08/25 08:17:27;;;;;;;10.82;9.50;;;28.20;99.90;;;;;;5095518;28;20628;-51
2022/08/25 08:19:55;;;;;;;12.75;9.75;;;28.20;99.90;;;;;;5109850;28;20622;-50
2022/08/25 08:22:23;;;;;;;10.35;9.32;;;28.10;99.90;;;;;;5109810;28;20199;-52
2022/08/25 08:24:51;;;;;;;10.77;9.68;;;28.10;99.90;;;;;;5109238;28;20298;-51
2022/08/25 08:27:23;;;;;;;10.68;9.40;;;28.00;99.90;;;;;;5109422;28;20261;-52
2022/08/25 08:29:53;;;;;;;10.13;8.40;;;28.00;99.90;;;;;;5099992;28;20203;-51
2022/08/25 08:32:22;;;;;;;12.25;9.60;;;28.10;99.90;;;;;;5103601;28;20207;-52
2022/08/25 08:35:08;;;;;;;10.90;8.60;;;28.00;99.90;;;;;;5100759;28;20715;-52
2022/08/25 08:37:40;;;;;;;10.95;9.02;;;28.10;99.90;;;;;;5109689;28;20199;-51
2022/08/25 08:40:10;;;;;;;13.38;9.60;;;28.10;99.90;;;;;;5109528;28;20236;-51
2022/08/25 08:42:53;;;;;;;13.48;9.65;;;28.20;99.90;;;;;;5113209;28;20225;-51
2022/08/25 08:45:35;;;;;;;9.82;8.77;;;28.20;99.90;;;;;;5113680;28;20252;-51
2022/08/25 08:48:39;;;;;;;13.00;10.05;;;28.20;99.90;;;;;;5108493;28;20202;-52
2022/08/25 08:51:18;;;;;;;14.07;9.30;;;28.20;99.90;;;;;;5113123;28;20211;-51
2022/08/25 08:53:51;;;;;;;9.98;8.90;;;28.30;99.90;;;;;;5113593;28;20227;-51
2022/08/25 08:56:23;;;;;;;10.82;8.60;;;28.20;99.90;;;;;;5112946;28;20223;-51
2022/08/25 08:58:59;;;;;;;12.30;8.82;;;28.20;99.90;;;;;;5113785;28;20211;-51
2022/08/25 09:01:42;;;;;;;13.10;9.77;;;28.20;99.90;;;;;;5113653;28;20230;-51
2022/08/25 09:04:18;;;;;;;12.13;9.70;;;28.10;99.90;;;;;;5111938;28;20223;-52
2022/08/25 09:06:48;;;;;;;10.43;8.93;;;28.20;99.90;;;;;;5113052;28;20195;-51
2022/08/25 09:09:24;;;;;;;11.30;8.80;;;28.20;99.90;;;;;;5113112;28;20208;-51
2022/08/25 09:12:04;;;;;;;12.32;9.07;;;28.20;99.90;;;;;;5112505;28;20218;-51
2022/08/25 09:14:45;;;;;;;12.65;8.50;;;28.30;99.90;;;;;;5112743;28;20576;-51
2022/08/25 09:17:36;;;;;;;13.35;8.98;;;28.30;99.90;;;;;;5112993;28;20192;-51
2022/08/25 09:20:17;;;;;;;12.07;9.32;;;28.30;99.90;;;;;;5112887;28;20582;-51
2022/08/25 09:22:54;;;;;;;10.77;9.40;;;28.20;99.90;;;;;;5113065;28;20226;-51
2022/08/25 09:25:29;;;;;;;12.27;8.70;;;28.30;99.90;;;;;;5111846;28;20256;-52
2022/08/25 09:28:21;;;;;;;11.40;8.60;;;28.40;99.90;;;;;;5105508;28;20288;-51
2022/08/25 09:30:56;;;;;;;9.50;8.50;;;28.50;99.90;;;;;;5110959;28;20264;-51
2022/08/25 09:33:28;;;;;;;9.52;8.52;;;28.40;99.90;;;;;;5108856;28;20237;-51
2022/08/25 09:35:56;;;;;;;8.90;7.78;;;28.50;99.90;;;;;;5112271;28;20219;-51
2022/08/25 09:38:25;;;;;;;13.20;8.73;;;28.40;99.90;;;;;;5112788;28;20203;-51
2022/08/25 09:40:55;;;;;;;8.80;7.90;;;28.30;99.90;;;;;;5105638;28;20617;-52
2022/08/25 09:43:30;;;;;;;10.00;8.10;;;28.30;99.90;;;;;;5108433;28;20215;-51
2022/08/25 09:46:01;;;;;;;9.55;8.45;;;28.30;99.90;;;;;;5109119;28;20199;-51
2022/08/25 09:48:36;;;;;;;10.85;8.75;;;28.30;99.90;;;;;;5111861;28;20214;-52
2022/08/25 09:51:17;;;;;;;9.38;8.45;;;28.40;99.90;;;;;;5106325;27;20200;-51
2022/08/25 09:53:53;;;;;;;8.90;7.38;;;28.40;99.90;;;;;;5110144;28;20230;-51
2022/08/25 09:56:23;;;;;;;9.20;7.13;;;28.30;99.90;;;;;;5111853;28;20291;-50
2022/08/25 09:58:53;;;;;;;11.70;8.18;;;28.40;99.90;;;;;;5112100;28;20588;-51
2022/08/25 10:01:23;;;;;;;8.43;7.63;;;28.60;99.90;;;;;;5112399;28;20207;-52
2022/08/25 10:04:10;;;;;;;11.57;7.82;;;28.60;99.90;;;;;;5111998;28;20263;-51
2022/08/25 10:06:47;;;;;;;8.88;7.32;;;28.60;99.90;;;;;;5111992;28;20249;-52
2022/08/25 10:09:28;;;;;;;9.27;7.57;;;28.70;99.90;;;;;;5111745;28;20272;-52
2022/08/25 10:11:59;;;;;;;11.93;8.07;;;28.50;99.90;;;;;;5111950;28;20289;-52
2022/08/25 10:14:34;;;;;;;8.50;7.68;;;28.40;99.90;;;;;;5111851;28;20262;-51
2022/08/25 10:17:23;;;;;;;11.27;8.70;;;28.60;99.90;;;;;;5106943;28;20303;-52
2022/08/25 10:20:15;;;;;;;9.38;8.48;;;28.60;99.90;;;;;;5111145;28;20239;-51
2022/08/25 10:22:45;;;;;;;13.45;8.32;;;28.60;99.90;;;;;;5098450;28;20219;-52
2022/08/25 10:25:22;;;;;;;9.25;8.20;;;28.60;99.90;;;;;;5110992;28;20210;-52
2022/08/25 10:28:03;;;;;;;9.90;7.85;;;28.50;99.90;;;;;;5107149;28;20204;-52
2022/08/25 10:30:42;;;;;;;9.98;8.43;;;28.30;99.90;;;;;;5106910;28;20207;-51
2022/08/25 10:33:19;;;;;;;11.02;8.55;;;28.50;99.90;;;;;;5107756;28;20219;-52
2022/08/25 10:35:57;;;;;;;10.35;8.90;;;28.60;99.90;;;;;;5110601;28;20227;-51
2022/08/25 10:38:36;;;;;;;10.68;8.75;;;28.70;99.90;;;;;;5110993;28;20617;-52
2022/08/25 10:41:29;;;;;;;10.32;8.60;;;28.70;99.90;;;;;;5110785;28;20203;-52
2022/08/25 10:45:41;;;;;;;9.93;8.60;;;28.80;99.90;;;;;;5110852;28;20728;-51
2022/08/25 10:47:27;;;;;;;10.30;8.23;;;28.50;99.90;;;;;;5110357;28;20259;-52
2022/08/25 10:50:02;;;;;;;10.65;8.38;;;28.50;99.90;;;;;;5098012;28;20199;-52
2022/08/25 10:52:38;;;;;;;17.08;7.93;;;28.60;99.90;;;;;;5110897;28;20199;-51
2022/08/25 10:55:16;;;;;;;10.35;8.45;;;28.70;99.90;;;;;;5111149;28;20332;-52
2022/08/25 10:57:55;;;;;;;9.10;7.75;;;28.80;99.90;;;;;;5112686;27;20272;-52
2022/08/25 11:00:28;;;;;;;8.95;7.28;;;28.90;99.90;;;;;;5121401;27;20191;-52
2022/08/25 11:03:20;;;;;;;10.00;7.45;;;29.30;99.90;;;;;;5110324;28;20215;-52
2022/08/25 11:05:57;;;;;;;7.80;7.10;;;29.50;99.90;;;;;;5110813;28;20208;-52
2022/08/25 11:08:35;;;;;;;10.23;7.93;;;29.70;99.90;;;;;;5110095;28;20211;-50
2022/08/25 11:11:12;;;;;;;8.35;7.45;;;29.70;99.90;;;;;;5110500;28;20218;-52
2022/08/25 11:13:47;;;;;;;8.85;7.13;;;29.50;99.90;;;;;;5110260;28;20219;-52
2022/08/25 11:16:19;;;;;;;10.02;7.78;;;29.60;99.90;;;;;;5097542;28;20226;-52
2022/08/25 11:18:54;;;;;;;11.32;7.90;;;29.50;99.90;;;;;;5109013;28;20616;-50
2022/08/25 11:21:31;;;;;;;8.63;7.20;;;29.50;99.90;;;;;;5110526;28;20250;-52
2022/08/25 11:24:08;;;;;;;8.32;6.75;;;29.50;99.90;;;;;;5108045;28;20266;-51
2022/08/25 11:26:40;;;;;;;8.60;7.53;;;29.60;99.90;;;;;;5110417;28;20207;-51
2022/08/25 11:29:14;;;;;;;9.02;7.32;;;29.60;99.80;;;;;;5100036;28;20204;-52
2022/08/25 11:31:52;;;;;;;9.30;7.18;;;29.60;99.90;;;;;;5109191;28;20737;-52
2022/08/25 11:34:22;;;;;;;8.10;7.30;;;29.70;99.90;;;;;;5108921;28;20934;-54
2022/08/25 11:36:54;;;;;;;10.00;7.43;;;29.90;99.90;;;;;;5110609;28;20284;-52
2022/08/25 11:39:37;;;;;;;8.75;6.82;;;29.90;99.90;;;;;;5109742;28;20199;-52
2022/08/25 11:42:20;;;;;;;10.63;7.28;;;29.70;99.90;;;;;;5110421;28;20207;-52
2022/08/25 11:44:58;;;;;;;11.32;7.13;;;29.40;99.20;;;;;;5104085;28;20228;-51
2022/08/25 11:47:46;;;;;;;9.13;6.78;;;29.40;99.80;;;;;;5109817;28;20259;-52
2022/08/25 11:50:27;;;;;;;8.30;6.88;;;29.30;99.30;;;;;;5105349;28;20281;-50
2022/08/25 11:53:01;;;;;;;9.25;7.28;;;29.30;99.40;;;;;;5108308;28;20310;-52
2022/08/25 11:55:47;;;;;;;8.88;7.35;;;29.30;99.40;;;;;;5110021;28;20200;-51
2022/08/25 11:58:54;;;;;;;10.20;6.75;;;29.50;99.80;;;;;;5109704;28;20703;-52
2022/08/25 12:01:55;;;;;;;8.85;7.15;;;29.30;99.30;;;;;;5112999;27;20211;-52
2022/08/25 12:04:35;;;;;;;8.68;6.93;;;29.10;99.50;;;;;;5107313;28;20227;-51
2022/08/25 12:07:21;;;;;;;9.20;7.18;;;29.00;99.80;;;;;;5109984;28;20658;-52
2022/08/25 12:10:12;;;;;;;10.25;6.95;;;29.10;99.90;;;;;;5109698;28;20203;-52
2022/08/25 12:15:56;;;;;;;7.85;6.63;;;29.00;99.60;;;;;;5086531;28;20565;-53
2022/08/25 12:18:45;;;;;;;10.13;6.72;;;29.00;99.10;;;;;;5086782;28;20333;-52
2022/08/25 12:21:33;;;;;;;7.18;6.47;;;28.90;99.00;;;;;;5078847;28;20197;-52
2022/08/25 12:24:10;;;;;;;8.60;6.68;;;28.90;98.90;;;;;;5083830;28;20220;-52
2022/08/25 12:26:45;;;;;;;7.93;6.55;;;28.80;99.20;;;;;;5086083;28;20204;-52
2022/08/25 12:29:20;;;;;;;12.05;6.30;;;28.80;99.30;;;;;;5069050;28;20196;-52
2022/08/25 12:32:17;;;;;;;6.97;5.93;;;28.90;98.80;;;;;;5057232;28;20296;-53
2022/08/25 12:35:03;;;;;;;9.05;6.10;;;28.90;99.10;;;;;;5073467;28;20240;-52
2022/08/25 12:37:34;;;;;;;6.50;5.90;;;29.00;98.90;;;;;;5085185;28;20204;-51
2022/08/25 12:40:06;;;;;;;6.72;5.30;;;29.10;98.40;;;;;;5073584;28;20216;-53
2022/08/25 12:42:38;;;;;;;6.20;5.60;;;29.20;97.20;;;;;;5080392;28;20235;-52
2022/08/25 12:45:31;;;;;;;6.65;5.53;;;29.30;96.40;;;;;;5078926;28;20333;-51
2022/08/25 12:48:33;;;;;;;5.85;4.93;;;29.40;96.80;;;;;;5085542;28;20215;-53
2022/08/25 12:51:05;;;;;;;6.93;5.63;;;29.40;96.00;;;;;;5084868;28;20677;-52
2022/08/25 12:53:37;;;;;;;8.20;6.03;;;29.40;96.60;;;;;;5085716;28;20232;-53
2022/08/25 12:56:09;;;;;;;7.10;5.65;;;29.50;96.50;;;;;;5065777;28;20666;-51
2022/08/25 12:58:48;;;;;;;6.90;5.63;;;29.60;96.50;;;;;;5078969;28;20208;-53
2022/08/25 13:01:50;;;;;;;9.50;6.20;;;29.80;96.90;;;;;;5085600;28;20208;-52
2022/08/25 13:04:52;;;;;;;7.22;6.43;;;30.00;96.70;;;;;;5084934;28;20235;-52
2022/08/25 13:07:36;;;;;;;8.48;5.85;;;29.90;97.10;;;;;;5080463;28;20208;-51
2022/08/25 13:10:27;;;;;;;8.00;5.97;;;29.80;96.90;;;;;;5085322;28;20566;-51
2022/08/25 13:13:03;;;;;;;8.02;6.80;;;29.70;97.10;;;;;;5085121;28;20232;-52
2022/08/25 13:15:39;;;;;;;8.35;6.07;;;29.70;97.10;;;;;;5085318;28;20254;-52
2022/08/25 13:18:23;;;;;;;6.97;6.30;;;29.50;96.80;;;;;;5071261;28;20278;-53
2022/08/25 13:20:54;;;;;;;8.68;6.72;;;29.60;97.10;;;;;;5059018;28;20615;-52
2022/08/25 13:23:27;;;;;;;9.75;6.72;;;29.50;96.70;;;;;;5077897;28;20232;-52
2022/08/25 13:25:57;;;;;;;6.78;6.15;;;29.40;96.90;;;;;;5062096;28;20215;-52